Time;durP1;ratioP1;P1;durP2;ratioP2;P2;SDS_P1;SDS_P2;PMS_P1;PMS_P2;Temp;Humidity;BMP_temperature;BMP_pressure;BME280_temperature;BME280_humidity;BME280_pressure;Samples;Min_cycle;Max_cycle;Signal;HPM_P1;HPM_P2
2022/11/30 07:27:11;;;;;;;;;16.00;12.00;;;;;;;;5063307;28;13423;-69
2022/11/30 07:29:36;;;;;;;;;10.33;8.33;;;;;;;;5066460;28;8789;-70
2022/11/30 07:32:01;;;;;;;;;12.00;10.00;;;;;;;;5066131;28;8813;-69
2022/11/30 07:34:27;;;;;;;;;9.25;9.00;;;;;;;;5066003;28;9000;-68
2022/11/30 07:36:52;;;;;;;;;17.00;11.00;;;;;;;;5066932;28;8809;-68
2022/11/30 10:52:06;;;;;;;;;7.50;7.50;;;;;;;;5103844;27;13396;-69
2022/11/30 10:54:33;;;;;;;;;9.75;9.75;;;;;;;;5106888;28;11516;-68
2022/11/30 10:57:01;;;;;;;;;8.75;7.75;;;;;;;;5106459;28;12250;-68
2022/11/30 10:59:33;;;;;;;;;9.00;9.00;;;;;;;;5106813;28;10910;-69
2022/11/30 11:01:58;;;;;;;;;11.75;8.25;;;;;;;;5106886;28;10999;-68
2022/11/30 11:04:24;;;;;;;;;7.00;7.00;;;;;;;;5106885;28;9832;-67
2022/11/30 11:06:53;;;;;;;;;8.67;8.67;;;;;;;;5106652;28;8842;-68
2022/11/30 11:09:51;;;;;;;;;8.00;7.00;;;;;;;;5106772;28;8885;-68
2022/11/30 11:12:19;;;;;;;;;7.00;6.25;;;;;;;;5066698;28;9546;-68
2022/11/30 11:14:45;;;;;;;;;0.25;0.25;;;;;;;;5066975;28;8848;-69
2022/11/30 11:17:20;;;;;;;;;9.00;8.00;;;;;;;;5080709;28;8885;-69
2022/11/30 11:19:46;;;;;;;;;8.25;8.00;;;;;;;;5103849;28;8900;-69
2022/11/30 11:22:12;;;;;;;;;7.00;6.75;;;;;;;;5104005;28;8892;-68
2022/11/30 11:24:37;;;;;;;;;7.67;7.00;;;;;;;;5103987;28;8786;-69
2022/11/30 11:27:03;;;;;;;;;5.00;3.00;;;;;;;;5103789;28;8840;-68
2022/11/30 11:29:33;;;;;;;;;8.00;8.00;;;;;;;;5103657;28;8805;-70
2022/11/30 11:32:17;;;;;;;;;8.75;6.75;;;;;;;;5103567;28;8786;-67
2022/11/30 11:34:43;;;;;;;;;7.00;7.00;;;;;;;;5103550;28;8854;-68
2022/11/30 11:37:20;;;;;;;;;6.00;6.00;;;;;;;;5086485;28;9035;-69
2022/11/30 11:39:54;;;;;;;;;12.75;9.00;;;;;;;;5103649;28;9604;-69
2022/11/30 11:42:20;;;;;;;;;9.00;9.00;;;;;;;;5103564;28;9621;-69
2022/11/30 11:44:49;;;;;;;;;8.25;8.00;;;;;;;;5103440;28;9868;-69
2022/11/30 11:47:33;;;;;;;;;8.25;8.00;;;;;;;;5108727;27;8808;-69
2022/11/30 11:50:11;;;;;;;;;11.00;8.50;;;;;;;;5124161;27;10619;-69
2022/11/30 11:52:36;;;;;;;;;8.75;6.75;;;;;;;;5126338;27;10703;-69
2022/11/30 11:55:04;;;;;;;;;13.50;9.00;;;;;;;;5126232;27;10814;-68
2022/11/30 11:57:48;;;;;;;;;9.00;9.00;;;;;;;;5124921;27;8777;-69
2022/11/30 12:00:19;;;;;;;;;12.25;8.25;;;;;;;;5126416;27;11406;-68
2022/11/30 12:02:49;;;;;;;;;12.75;11.75;;;;;;;;5114736;28;11423;-68
2022/11/30 12:05:16;;;;;;;;;12.25;10.75;;;;;;;;5112182;28;11392;-69
2022/11/30 12:07:49;;;;;;;;;10.25;9.00;;;;;;;;5113477;28;11383;-69
2022/11/30 12:10:30;;;;;;;;;8.00;8.00;;;;;;;;5112384;28;11406;-69
2022/11/30 12:12:57;;;;;;;;;10.75;6.75;;;;;;;;5110869;28;11492;-69
2022/11/30 12:15:25;;;;;;;;;11.00;9.50;;;;;;;;5112598;28;11439;-69
2022/11/30 12:17:58;;;;;;;;;14.25;10.00;;;;;;;;5112114;28;11660;-69
2022/11/30 12:20:27;;;;;;;;;10.50;10.50;;;;;;;;5111994;28;11523;-68
2022/11/30 12:22:58;;;;;;;;;7.25;7.25;;;;;;;;5111774;28;11576;-68
2022/11/30 12:25:29;;;;;;;;;12.50;11.25;;;;;;;;5111803;28;11436;-68
2022/11/30 12:28:16;;;;;;;;;9.00;9.00;;;;;;;;5110587;28;11635;-68
2022/11/30 12:30:59;;;;;;;;;9.50;8.25;;;;;;;;5112136;28;11532;-68
2022/11/30 12:33:25;;;;;;;;;10.75;9.00;;;;;;;;5111866;28;11414;-68
2022/11/30 12:35:59;;;;;;;;;9.75;6.75;;;;;;;;5111949;28;11581;-70
2022/11/30 12:38:24;;;;;;;;;18.50;10.75;;;;;;;;5111900;28;8789;-68
2022/11/30 12:41:08;;;;;;;;;10.00;6.50;;;;;;;;5111499;28;11518;-68
2022/11/30 12:43:51;;;;;;;;;8.25;8.25;;;;;;;;5111620;28;8877;-67
2022/11/30 12:46:27;;;;;;;;;10.50;9.00;;;;;;;;5111451;28;11444;-68
2022/11/30 12:48:58;;;;;;;;;9.75;7.00;;;;;;;;5111452;28;11545;-69
2022/11/30 12:51:28;;;;;;;;;10.75;10.00;;;;;;;;5110046;28;12340;-69
2022/11/30 12:53:53;;;;;;;;;7.00;7.00;;;;;;;;5111766;28;11476;-69
2022/11/30 12:56:37;;;;;;;;;14.00;10.00;;;;;;;;5111966;28;11586;-69
2022/11/30 12:59:02;;;;;;;;;7.00;7.00;;;;;;;;5109808;28;8797;-69
2022/11/30 13:01:43;;;;;;;;;15.00;10.75;;;;;;;;5111268;28;12215;-68
2022/11/30 13:04:14;;;;;;;;;11.75;9.75;;;;;;;;5109916;28;8817;-69
2022/11/30 13:06:43;;;;;;;;;13.50;12.00;;;;;;;;5111238;27;11475;-70
2022/11/30 13:09:20;;;;;;;;;11.50;9.00;;;;;;;;5110994;28;11499;-67
2022/11/30 13:11:48;;;;;;;;;10.25;10.00;;;;;;;;5111004;28;11429;-68
2022/11/30 13:14:21;;;;;;;;;9.50;9.00;;;;;;;;5110285;28;11493;-69
2022/11/30 13:16:48;;;;;;;;;7.50;7.25;;;;;;;;5110625;28;11502;-69
2022/11/30 13:19:26;;;;;;;;;8.50;7.00;;;;;;;;5110991;28;11521;-69
2022/11/30 13:21:54;;;;;;;;;13.00;9.50;;;;;;;;5110587;28;11490;-68
2022/11/30 13:24:31;;;;;;;;;13.25;10.25;;;;;;;;5110582;28;11465;-69
2022/11/30 13:27:04;;;;;;;;;13.75;9.25;;;;;;;;5109306;28;11511;-69
2022/11/30 13:29:54;;;;;;;;;14.00;11.00;;;;;;;;5110677;28;11704;-69
2022/11/30 13:32:20;;;;;;;;;10.00;7.25;;;;;;;;5110299;28;11586;-69
2022/11/30 13:34:45;;;;;;;;;12.25;9.00;;;;;;;;5110562;28;11441;-69
2022/11/30 13:37:10;;;;;;;;;12.25;12.25;;;;;;;;5107011;28;8840;-73
2022/11/30 13:39:42;;;;;;;;;9.00;7.25;;;;;;;;5088876;28;8823;-69
2022/11/30 13:42:12;;;;;;;;;10.25;10.00;;;;;;;;5099502;28;9566;-69
2022/11/30 13:44:39;;;;;;;;;11.50;8.75;;;;;;;;5107482;28;11487;-69
2022/11/30 13:47:12;;;;;;;;;12.00;9.50;;;;;;;;5110123;28;11434;-70
2022/11/30 13:49:38;;;;;;;;;11.75;8.00;;;;;;;;5109766;28;11444;-70
2022/11/30 13:52:03;;;;;;;;;12.50;9.50;;;;;;;;5094341;28;11495;-69
2022/11/30 13:54:45;;;;;;;;;16.75;10.50;;;;;;;;5097998;28;8790;-68
2022/11/30 18:06:38;;;;;;;;;21.00;17.67;;;;;;;;5100736;27;13421;-69
2022/11/30 18:09:03;;;;;;;;;5.67;3.00;;;;;;;;5085591;28;8830;-70
2022/11/30 18:11:29;;;;;;;;;19.67;14.33;;;;;;;;5083203;28;8850;-70
2022/11/30 18:13:55;;;;;;;;;17.67;15.67;;;;;;;;5084854;28;8981;-71
2022/11/30 18:16:22;;;;;;;;;14.33;13.33;;;;;;;;5085438;28;8861;-72
2022/11/30 18:18:47;;;;;;;;;23.67;19.33;;;;;;;;5085657;28;8819;-72
2022/11/30 18:21:13;;;;;;;;;20.33;19.67;;;;;;;;5085719;28;8826;-73
2022/11/30 18:23:39;;;;;;;;;17.67;13.33;;;;;;;;5085184;28;8834;-72
2022/11/30 18:26:06;;;;;;;;;16.00;14.33;;;;;;;;5085047;28;8938;-73
2022/11/30 18:28:32;;;;;;;;;15.67;14.67;;;;;;;;5083171;28;8921;-71
2022/11/30 18:31:00;;;;;;;;;19.67;18.67;;;;;;;;5087760;28;8909;-70
2022/11/30 18:33:25;;;;;;;;;15.00;8.00;;;;;;;;5083312;28;9638;-74
2022/11/30 18:35:51;;;;;;;;;19.00;17.33;;;;;;;;5086948;28;8834;-73
2022/11/30 18:38:16;;;;;;;;;28.00;26.00;;;;;;;;5084986;28;8783;-73
2022/11/30 18:40:42;;;;;;;;;26.00;20.33;;;;;;;;5086462;28;8775;-76
2022/11/30 18:43:07;;;;;;;;;26.00;21.33;;;;;;;;5084832;28;9493;-72
2022/11/30 18:45:33;;;;;;;;;19.00;16.67;;;;;;;;5086108;28;8813;-76
2022/11/30 18:48:01;;;;;;;;;19.67;12.67;;;;;;;;5084655;28;8964;-69
2022/11/30 18:50:27;;;;;;;;;25.33;18.33;;;;;;;;5083540;28;8824;-70
2022/11/30 18:52:53;;;;;;;;;15.33;15.33;;;;;;;;5084739;28;8889;-69
2022/11/30 18:55:19;;;;;;;;;25.33;18.33;;;;;;;;5084567;28;8830;-69
2022/11/30 18:57:44;;;;;;;;;25.33;22.00;;;;;;;;5084511;28;8803;-70
2022/11/30 19:00:10;;;;;;;;;29.33;23.33;;;;;;;;5083204;28;8834;-69
2022/11/30 19:02:35;;;;;;;;;25.00;23.33;;;;;;;;5083102;28;8818;-70
2022/11/30 19:05:00;;;;;;;;;22.00;16.67;;;;;;;;5081376;28;8831;-69
2022/11/30 19:07:25;;;;;;;;;22.00;17.00;;;;;;;;5082363;28;8794;-71
2022/11/30 19:09:51;;;;;;;;;19.67;18.00;;;;;;;;5081670;28;8909;-70
2022/11/30 19:12:16;;;;;;;;;15.67;14.67;;;;;;;;5082936;28;8802;-70
2022/11/30 19:14:43;;;;;;;;;24.67;19.00;;;;;;;;5083512;28;8815;-70
2022/11/30 19:17:09;;;;;;;;;19.00;19.00;;;;;;;;5075411;28;9188;-69
2022/11/30 19:19:34;;;;;;;;;19.33;17.00;;;;;;;;5068406;28;8795;-70
2022/11/30 19:21:59;;;;;;;;;19.33;18.33;;;;;;;;5070145;28;8787;-69
2022/11/30 19:24:24;;;;;;;;;26.33;24.00;;;;;;;;5070357;28;9086;-71
2022/11/30 19:26:50;;;;;;;;;34.00;25.00;;;;;;;;5070452;28;8786;-70
2022/11/30 19:29:15;;;;;;;;;42.67;34.67;;;;;;;;5068942;28;8832;-70
2022/11/30 19:31:40;;;;;;;;;18.67;16.33;;;;;;;;5070269;28;8887;-70
2022/11/30 19:34:07;;;;;;;;;24.00;18.67;;;;;;;;5070076;28;8902;-71
2022/11/30 19:36:32;;;;;;;;;20.33;18.67;;;;;;;;5070096;28;8949;-72
2022/11/30 19:38:58;;;;;;;;;24.00;18.67;;;;;;;;5070158;28;8913;-72
2022/11/30 19:41:24;;;;;;;;;4.33;0.33;;;;;;;;5069007;28;8794;-72
2022/11/30 19:43:54;;;;;;;;;22.33;18.33;;;;;;;;5070261;28;8822;-73
2022/11/30 19:46:19;;;;;;;;;25.00;19.00;;;;;;;;5069020;28;9677;-72
2022/11/30 19:48:44;;;;;;;;;23.67;18.00;;;;;;;;5069606;28;8897;-71
2022/11/30 19:51:11;;;;;;;;;22.67;16.67;;;;;;;;5069911;28;8817;-72
2022/11/30 19:53:37;;;;;;;;;23.00;18.33;;;;;;;;5069900;28;8818;-71
2022/11/30 19:56:22;;;;;;;;;22.33;18.67;;;;;;;;5069459;28;8827;-71
2022/11/30 19:58:47;;;;;;;;;11.67;11.00;;;;;;;;5070568;28;8787;-72
2022/11/30 20:01:18;;;;;;;;;22.33;17.67;;;;;;;;5069403;28;8848;-71
2022/11/30 20:03:43;;;;;;;;;22.33;18.33;;;;;;;;5067480;28;8934;-72
2022/11/30 20:06:08;;;;;;;;;15.00;14.67;;;;;;;;5069582;28;8952;-71
2022/11/30 20:08:35;;;;;;;;;25.67;16.33;;;;;;;;5069867;28;8791;-71
2022/11/30 20:11:04;;;;;;;;;16.33;15.67;;;;;;;;5069659;28;8875;-71
2022/11/30 20:13:29;;;;;;;;;17.33;15.33;;;;;;;;5069647;28;8892;-72
2022/11/30 20:15:54;;;;;;;;;20.33;20.00;;;;;;;;5069329;28;8830;-72
2022/11/30 20:18:20;;;;;;;;;19.00;15.33;;;;;;;;5069132;28;8790;-72
2022/11/30 20:20:45;;;;;;;;;26.00;16.00;;;;;;;;5069390;28;8879;-73
2022/11/30 20:23:10;;;;;;;;;20.00;18.00;;;;;;;;5068277;28;9926;-73
2022/11/30 20:25:35;;;;;;;;;21.33;16.67;;;;;;;;5069306;28;8798;-81
2022/11/30 20:28:01;;;;;;;;;;;;;;;;;;5067633;28;9008;-70
2022/11/30 20:30:26;;;;;;;;;15.00;12.00;;;;;;;;5069121;28;8794;-72
2022/11/30 20:32:51;;;;;;;;;20.25;17.25;;;;;;;;5003903;28;13559;-73
2022/11/30 20:35:17;;;;;;;;;25.67;19.00;;;;;;;;5026704;28;13695;-72
2022/11/30 20:37:42;;;;;;;;;22.00;19.50;;;;;;;;5023608;28;13547;-72
2022/11/30 20:40:07;;;;;;;;;28.25;23.25;;;;;;;;5024377;28;14439;-72
2022/11/30 20:42:33;;;;;;;;;28.25;21.25;;;;;;;;5024468;28;13576;-72
2022/11/30 20:44:58;;;;;;;;;24.50;24.50;;;;;;;;5024857;28;14300;-71
2022/11/30 20:47:24;;;;;;;;;27.50;22.00;;;;;;;;5025126;28;13728;-71
2022/11/30 20:49:49;;;;;;;;;19.00;19.00;;;;;;;;5022899;28;13400;-72
2022/11/30 20:52:14;;;;;;;;;27.00;23.00;;;;;;;;5024815;28;13564;-68
2022/11/30 20:54:40;;;;;;;;;21.75;21.50;;;;;;;;5024665;28;13754;-74
2022/11/30 20:57:05;;;;;;;;;26.33;25.00;;;;;;;;5024457;28;14283;-69
2022/11/30 20:59:30;;;;;;;;;14.67;14.00;;;;;;;;5030318;28;8817;-69
2022/11/30 21:01:56;;;;;;;;;19.00;14.33;;;;;;;;5029177;28;8831;-68
2022/11/30 21:04:32;;;;;;;;;24.33;21.00;;;;;;;;5024698;28;13578;-69
2022/11/30 21:06:57;;;;;;;;;26.25;23.25;;;;;;;;5024495;28;14219;-69
2022/11/30 21:09:22;;;;;;;;;25.50;23.00;;;;;;;;5023910;28;13615;-68
2022/11/30 21:11:48;;;;;;;;;28.00;25.00;;;;;;;;5025693;28;13729;-70
2022/11/30 21:14:13;;;;;;;;;23.33;23.00;;;;;;;;5024664;28;14276;-69
2022/11/30 21:16:39;;;;;;;;;20.67;20.00;;;;;;;;5024264;28;9616;-68
2022/11/30 21:19:09;;;;;;;;;29.60;25.80;;;;;;;;5024335;28;13613;-69
2022/11/30 21:21:34;;;;;;;;;14.00;13.00;;;;;;;;5026922;28;8808;-69
2022/11/30 21:24:01;;;;;;;;;14.33;10.00;;;;;;;;5027837;28;11653;-69
2022/11/30 21:26:28;;;;;;;;;19.00;17.00;;;;;;;;5027543;28;8815;-69
2022/11/30 21:29:06;;;;;;;;;19.33;19.00;;;;;;;;5042511;28;11577;-69
2022/11/30 21:31:31;;;;;;;;;16.00;16.00;;;;;;;;5026952;28;8896;-69
2022/11/30 21:33:57;;;;;;;;;22.33;18.67;;;;;;;;5028089;28;8808;-69
2022/11/30 21:36:22;;;;;;;;;18.33;15.67;;;;;;;;5027619;28;8835;-69
2022/11/30 21:38:54;;;;;;;;;31.00;24.75;;;;;;;;5024310;28;13564;-70
2022/11/30 21:41:20;;;;;;;;;23.33;20.00;;;;;;;;5023346;28;13606;-69
2022/11/30 21:46:17;;;;;;;;;33.67;26.67;;;;;;;;5102193;27;13216;-68
2022/11/30 21:48:44;;;;;;;;;25.33;22.33;;;;;;;;5103617;28;9741;-68
2022/11/30 21:51:11;;;;;;;;;24.00;22.67;;;;;;;;5106682;28;8932;-68
2022/11/30 21:53:40;;;;;;;;;27.33;23.00;;;;;;;;5105777;28;8905;-69
2022/11/30 21:56:18;;;;;;;;;24.33;19.00;;;;;;;;5105567;28;8820;-71
2022/11/30 21:58:45;;;;;;;;;24.33;20.33;;;;;;;;5103359;28;9580;-69
2022/11/30 22:01:11;;;;;;;;;23.67;22.00;;;;;;;;5105710;28;8832;-69
2022/11/30 22:03:37;;;;;;;;;27.00;22.33;;;;;;;;5104598;28;8800;-68
2022/11/30 22:06:03;;;;;;;;;26.00;21.33;;;;;;;;5104843;28;8874;-73
2022/11/30 22:08:29;;;;;;;;;30.00;23.67;;;;;;;;5105246;28;8908;-68
2022/11/30 22:10:58;;;;;;;;;27.33;24.33;;;;;;;;5105242;28;8800;-69
2022/11/30 22:13:23;;;;;;;;;26.33;23.00;;;;;;;;5106436;28;8814;-70
2022/11/30 22:15:55;;;;;;;;;20.67;19.33;;;;;;;;5106956;28;9542;-70
2022/11/30 22:18:20;;;;;;;;;29.00;21.33;;;;;;;;5106511;28;8784;-70
2022/11/30 22:20:46;;;;;;;;;26.33;22.00;;;;;;;;5106275;28;8827;-70
2022/11/30 22:23:11;;;;;;;;;26.33;22.00;;;;;;;;5106653;28;8783;-70
2022/11/30 22:25:36;;;;;;;;;26.33;22.00;;;;;;;;5106344;28;8827;-70
2022/11/30 22:28:01;;;;;;;;;27.00;22.67;;;;;;;;5106318;28;8788;-70
2022/11/30 22:30:27;;;;;;;;;29.33;23.00;;;;;;;;5106426;28;8788;-70
2022/11/30 22:32:52;;;;;;;;;25.67;23.00;;;;;;;;5106333;28;9506;-69
2022/11/30 22:35:17;;;;;;;;;29.67;25.67;;;;;;;;5106163;28;8918;-70
2022/11/30 22:37:42;;;;;;;;;27.67;26.00;;;;;;;;5106182;28;8883;-69
2022/11/30 22:40:08;;;;;;;;;28.33;23.67;;;;;;;;5105983;28;9514;-69
2022/11/30 22:42:34;;;;;;;;;26.67;22.33;;;;;;;;5104567;28;8811;-69
2022/11/30 22:44:59;;;;;;;;;34.33;30.33;;;;;;;;5105900;28;8835;-69
2022/11/30 22:47:24;;;;;;;;;39.00;30.00;;;;;;;;5105384;28;8779;-69
2022/11/30 22:49:50;;;;;;;;;28.33;23.33;;;;;;;;5105761;28;8833;-70
2022/11/30 22:52:15;;;;;;;;;28.00;24.00;;;;;;;;5105866;28;8897;-70
2022/11/30 22:54:40;;;;;;;;;25.67;20.00;;;;;;;;5105846;28;8827;-70
2022/11/30 22:57:05;;;;;;;;;27.67;25.33;;;;;;;;5093694;28;8799;-70
2022/11/30 22:59:31;;;;;;;;;32.33;26.00;;;;;;;;5092126;28;8879;-70
2022/11/30 23:01:56;;;;;;;;;30.33;27.00;;;;;;;;5092045;28;8772;-69
2022/11/30 23:04:22;;;;;;;;;25.67;25.67;;;;;;;;5091788;28;8835;-69
2022/11/30 23:06:49;;;;;;;;;26.33;24.33;;;;;;;;5092012;28;9016;-70
2022/11/30 23:09:16;;;;;;;;;27.67;26.33;;;;;;;;5091916;28;8780;-69
2022/11/30 23:11:42;;;;;;;;;36.67;30.33;;;;;;;;5091979;28;8910;-69
2022/11/30 23:14:08;;;;;;;;;26.67;23.33;;;;;;;;5092450;28;8800;-70
2022/11/30 23:16:36;;;;;;;;;27.00;26.33;;;;;;;;5091583;28;8811;-69
2022/11/30 23:19:02;;;;;;;;;27.67;22.33;;;;;;;;5095666;28;8768;-70
2022/11/30 23:21:29;;;;;;;;;27.67;25.33;;;;;;;;5092823;28;8795;-68
2022/11/30 23:23:55;;;;;;;;;36.33;29.00;;;;;;;;5091901;28;8820;-69
2022/11/30 23:26:22;;;;;;;;;27.00;24.00;;;;;;;;5091557;28;8800;-69
2022/11/30 23:28:48;;;;;;;;;28.33;23.67;;;;;;;;5091672;28;8822;-70
2022/11/30 23:31:15;;;;;;;;;30.00;27.00;;;;;;;;5091313;28;8784;-70
2022/11/30 23:33:41;;;;;;;;;7.67;5.33;;;;;;;;5091180;28;9596;-70
2022/11/30 23:36:07;;;;;;;;;33.33;26.33;;;;;;;;5091739;28;8795;-70
2022/11/30 23:38:33;;;;;;;;;29.33;26.67;;;;;;;;5091411;28;8784;-69
2022/11/30 23:41:02;;;;;;;;;26.67;23.00;;;;;;;;5091230;28;8776;-70
2022/11/30 23:43:28;;;;;;;;;31.00;26.33;;;;;;;;5091217;28;9592;-69
2022/11/30 23:45:53;;;;;;;;;34.00;26.00;;;;;;;;5091032;28;8820;-69
2022/11/30 23:48:18;;;;;;;;;33.00;27.00;;;;;;;;5091103;28;8831;-69
2022/11/30 23:50:44;;;;;;;;;30.00;26.67;;;;;;;;5089918;28;8799;-69
2022/11/30 23:53:09;;;;;;;;;30.33;26.00;;;;;;;;5091089;28;8802;-70
2022/11/30 23:55:34;;;;;;;;;32.33;26.67;;;;;;;;5091038;28;8908;-70
2022/11/30 23:58:00;;;;;;;;;31.33;27.00;;;;;;;;5089441;28;8814;-70
